Terminal Aerodrome Forecast
Issued by NWS Shreveport, LA

Home | Current Version | Previous Version | Text Only | Print | Product List | Glossary On
Versions: 1 2 3 4 5 6 7 8 9 10 11 12 13 14 15
000
FTUS44 KSHV 281757
TAFLFK
TAF
KLFK 281757Z 2818/2918 16010KT P6SM FEW250
     FM290900 14003KT 2SM BR SCT015 BKN250
      TEMPO 2910/2914 1/2SM FG OVC010
     FM291500 18009KT P6SM OVC025=

USA.gov is the U.S. government's official web portal to all federal, state and local government web resources and services.